createdAt,value
2018-10-06T00:03:01.743Z,8.90
2018-10-06T00:07:44.395Z,8.80
2018-10-06T00:12:25.824Z,8.80
2018-10-06T00:17:06.648Z,8.70
2018-10-06T00:21:47.051Z,8.60
2018-10-06T00:26:27.023Z,8.60
2018-10-06T00:31:07.806Z,8.50
2018-10-06T00:35:48.153Z,8.50
2018-10-06T00:40:28.671Z,8.40
2018-10-06T00:45:09.695Z,8.40
2018-10-06T00:49:50.337Z,8.40
2018-10-06T00:54:30.612Z,8.40
2018-10-06T00:59:11.184Z,8.30
2018-10-06T01:03:51.449Z,8.20
2018-10-06T01:08:32.520Z,8.20
2018-10-06T01:13:12.467Z,8.10
2018-10-06T01:17:53.284Z,8.20
2018-10-06T01:22:34.799Z,8.20
2018-10-06T01:27:15.239Z,8.10
2018-10-06T01:31:55.056Z,8.10
2018-10-06T01:36:35.017Z,8.10
2018-10-06T01:41:15.484Z,8.00
2018-10-06T01:45:56.099Z,8.00
2018-10-06T01:50:36.694Z,8.00
2018-10-06T01:55:16.972Z,7.90
2018-10-06T01:59:57.024Z,7.90
2018-10-06T02:04:37.322Z,7.80
2018-10-06T02:09:17.861Z,7.80
2018-10-06T02:13:57.712Z,7.70
2018-10-06T02:18:39.152Z,7.70
2018-10-06T02:23:18.964Z,7.60
2018-10-06T02:27:59.177Z,7.60
2018-10-06T02:32:39.489Z,7.50
2018-10-06T02:37:19.433Z,7.50
2018-10-06T02:42:02.582Z,7.50
2018-10-06T02:46:42.775Z,7.40
2018-10-06T02:51:25.040Z,7.40
2018-10-06T02:56:05.892Z,7.40
2018-10-06T03:00:45.832Z,7.40
2018-10-06T03:05:26.986Z,7.40
2018-10-06T03:10:07.211Z,7.30
2018-10-06T03:14:47.040Z,7.30
2018-10-06T03:19:27.600Z,7.30
2018-10-06T03:24:08.532Z,7.20
2018-10-06T03:28:49.293Z,7.20
2018-10-06T03:33:29.051Z,7.20
2018-10-06T03:38:10.812Z,7.20
2018-10-06T03:42:50.809Z,7.20
2018-10-06T03:47:31.205Z,7.10
2018-10-06T03:52:12.636Z,7.10
2018-10-06T03:56:53.257Z,7.10
2018-10-06T04:01:34.989Z,7.00
2018-10-06T04:06:15.698Z,7.00
2018-10-06T04:10:56.151Z,7.00
2018-10-06T04:15:37.509Z,7.00
2018-10-06T04:20:18.297Z,6.90
2018-10-06T04:24:59.137Z,6.80
2018-10-06T04:29:39.709Z,6.80
2018-10-06T04:34:19.841Z,6.80
2018-10-06T04:38:59.772Z,6.70
2018-10-06T04:43:40.910Z,6.70
2018-10-06T04:48:23.235Z,6.70
2018-10-06T04:53:05.691Z,6.60
2018-10-06T04:57:45.840Z,6.60
2018-10-06T05:02:26.202Z,6.60
2018-10-06T05:07:07.441Z,6.50
2018-10-06T05:11:47.500Z,6.50
2018-10-06T05:16:27.240Z,6.50
2018-10-06T05:21:07.280Z,6.50
2018-10-06T05:25:47.421Z,6.60
2018-10-06T05:30:27.212Z,6.50
2018-10-06T05:35:07.016Z,6.40
2018-10-06T05:39:47.088Z,6.40
2018-10-06T05:44:26.978Z,6.40
2018-10-06T05:49:07.366Z,6.40
2018-10-06T05:53:48.644Z,6.40
2018-10-06T05:58:30.086Z,6.40
2018-10-06T06:03:09.984Z,6.40
2018-10-06T06:07:49.805Z,6.50
2018-10-06T06:12:30.577Z,6.60
2018-10-06T06:17:10.455Z,6.70
2018-10-06T06:21:50.260Z,6.80
2018-10-06T06:26:30.147Z,6.90
2018-10-06T06:31:12.972Z,7.00
2018-10-06T06:35:54.292Z,7.10
2018-10-06T06:40:34.444Z,7.30
2018-10-06T06:45:15.653Z,7.40
2018-10-06T06:49:56.411Z,7.80
2018-10-06T06:54:36.668Z,8.30
2018-10-06T06:59:22.021Z,9.50
2018-10-06T07:04:03.281Z,11.40
2018-10-06T07:08:43.562Z,13.10
2018-10-06T07:13:23.576Z,14.70
2018-10-06T07:18:03.512Z,16.00
2018-10-06T07:22:44.295Z,17.10
2018-10-06T07:27:24.607Z,18.40
2018-10-06T07:32:05.808Z,19.20
2018-10-06T07:36:47.512Z,19.70
2018-10-06T07:41:28.433Z,19.90
2018-10-06T07:46:09.595Z,20.40
2018-10-06T07:50:49.502Z,20.80
2018-10-06T07:55:29.374Z,20.70
2018-10-06T08:00:09.867Z,20.70
2018-10-06T08:04:50.260Z,21.20
2018-10-06T08:09:30.518Z,21.60
2018-10-06T08:14:11.755Z,21.80
2018-10-06T08:18:52.228Z,22.60
2018-10-06T08:23:33.689Z,23.20
2018-10-06T08:28:13.464Z,24.00
2018-10-06T08:32:54.165Z,22.90
2018-10-06T08:37:35.239Z,22.20
2018-10-06T08:42:15.121Z,22.20
2018-10-06T08:46:56.137Z,23.30
2018-10-06T08:51:36.660Z,23.80
2018-10-06T08:56:17.469Z,23.60
2018-10-06T09:00:58.002Z,22.90
2018-10-06T09:05:38.079Z,22.50
2018-10-06T09:10:18.557Z,23.20
2018-10-06T09:14:58.485Z,25.20
2018-10-06T09:19:38.369Z,27.40
2018-10-06T09:24:18.793Z,29.00
2018-10-06T09:28:58.988Z,31.30
2018-10-06T09:33:49.039Z,32.80
2018-10-06T09:38:29.313Z,32.90
2018-10-06T09:43:11.346Z,33.10
2018-10-06T09:47:51.303Z,33.70
2018-10-06T09:52:31.488Z,33.70
2018-10-06T09:57:11.526Z,33.70
2018-10-06T10:01:57.366Z,33.60
2018-10-06T10:06:37.747Z,33.60
2018-10-06T10:11:18.040Z,32.10
2018-10-06T10:15:58.018Z,30.00
2018-10-06T10:20:37.958Z,28.50
2018-10-06T10:25:18.113Z,28.20
2018-10-06T10:29:58.020Z,28.50
2018-10-06T10:34:38.313Z,28.80
2018-10-06T10:39:18.521Z,28.30
2018-10-06T10:43:59.233Z,28.40
2018-10-06T10:48:46.163Z,28.50
2018-10-06T10:53:26.616Z,27.80
2018-10-06T10:58:06.571Z,27.00
2018-10-06T11:02:46.932Z,26.30
2018-10-06T11:07:30.301Z,26.10
2018-10-06T11:12:10.659Z,27.10
2018-10-06T11:16:50.590Z,28.30
2018-10-06T11:21:30.436Z,29.90
2018-10-06T11:26:10.199Z,31.20
2018-10-06T11:30:50.143Z,32.10
2018-10-06T11:35:29.957Z,32.40
2018-10-06T11:40:09.805Z,33.10
2018-10-06T11:44:49.781Z,33.20
2018-10-06T11:49:29.528Z,33.10
2018-10-06T11:54:09.433Z,33.40
2018-10-06T11:58:50.187Z,33.50
2018-10-06T12:03:30.089Z,33.10
2018-10-06T12:08:10.698Z,32.40
2018-10-06T12:12:51.328Z,31.40
2018-10-06T12:17:31.142Z,30.90
2018-10-06T12:22:11.083Z,30.90
2018-10-06T12:26:50.801Z,30.80
2018-10-06T12:31:30.544Z,30.90
2018-10-06T12:36:10.758Z,31.10
2018-10-06T12:40:50.734Z,31.10
2018-10-06T12:45:30.649Z,31.20
2018-10-06T12:50:11.112Z,30.50
2018-10-06T12:54:52.219Z,29.30
2018-10-06T12:59:32.807Z,28.60
2018-10-06T13:04:13.344Z,28.10
2018-10-06T13:08:55.110Z,27.50
2018-10-06T13:13:41.644Z,26.70
2018-10-06T13:18:21.499Z,26.10
2018-10-06T13:23:01.744Z,25.20
2018-10-06T13:27:41.793Z,24.70
2018-10-06T13:32:22.976Z,24.60
2018-10-06T13:37:05.319Z,24.60
2018-10-06T13:41:46.064Z,24.80
2018-10-06T13:46:26.744Z,25.10
2018-10-06T13:51:07.248Z,25.20
2018-10-06T13:55:49.078Z,25.10
2018-10-06T14:00:30.043Z,24.80
2018-10-06T14:05:13.002Z,24.50
2018-10-06T14:09:55.164Z,24.10
2018-10-06T14:14:43.264Z,23.80
2018-10-06T14:19:25.493Z,23.70
2018-10-06T14:24:05.919Z,23.50
2018-10-06T14:28:45.866Z,23.50
2018-10-06T14:33:26.611Z,23.60
2018-10-06T14:38:07.755Z,23.60
2018-10-06T14:42:49.599Z,23.40
2018-10-06T14:47:30.016Z,23.20
2018-10-06T14:52:09.964Z,22.90
2018-10-06T14:56:56.809Z,22.80
2018-10-06T15:01:37.872Z,22.70
2018-10-06T15:06:17.720Z,22.50
2018-10-06T15:10:57.614Z,22.40
2018-10-06T15:15:37.547Z,22.10
2018-10-06T15:20:17.857Z,21.90
2018-10-06T15:25:00.318Z,21.90
2018-10-06T15:29:41.127Z,21.80
2018-10-06T15:34:21.028Z,21.80
2018-10-06T15:39:00.916Z,21.70
2018-10-06T15:43:41.521Z,21.50
2018-10-06T15:48:21.526Z,21.50
2018-10-06T15:53:01.336Z,21.50
2018-10-06T15:57:44.991Z,21.40
2018-10-06T16:02:24.746Z,21.30
2018-10-06T16:07:05.522Z,21.20
2018-10-06T16:11:45.621Z,21.10
2018-10-06T16:16:25.597Z,20.90
2018-10-06T16:21:05.743Z,20.80
2018-10-06T16:25:45.737Z,20.60
2018-10-06T16:30:25.545Z,20.50
2018-10-06T16:35:05.424Z,20.40
2018-10-06T16:39:45.437Z,20.20
2018-10-06T16:44:25.320Z,20.20
2018-10-06T16:49:05.207Z,20.00
2018-10-06T16:53:45.707Z,19.80
2018-10-06T16:58:25.369Z,19.60
2018-10-06T17:03:05.079Z,19.40
2018-10-06T17:07:45.093Z,19.20
2018-10-06T17:12:24.979Z,19.00
2018-10-06T17:17:04.812Z,18.70
2018-10-06T17:21:44.613Z,18.50
2018-10-06T17:26:24.718Z,18.30
2018-10-06T17:31:04.513Z,18.10
2018-10-06T17:35:44.697Z,17.90
2018-10-06T17:40:24.396Z,17.80
2018-10-06T17:45:06.397Z,17.60
2018-10-06T17:49:50.658Z,17.30
2018-10-06T17:54:31.475Z,17.10
2018-10-06T17:59:11.465Z,16.90
2018-10-06T18:03:51.929Z,16.60
2018-10-06T18:08:32.000Z,16.40
2018-10-06T18:13:11.813Z,16.20
2018-10-06T18:17:51.816Z,16.00
2018-10-06T18:22:31.651Z,15.80
2018-10-06T18:27:12.928Z,15.70
2018-10-06T18:31:52.969Z,15.60
2018-10-06T18:36:32.991Z,15.40
2018-10-06T18:41:12.829Z,15.30
2018-10-06T18:45:52.846Z,15.20
2018-10-06T18:50:32.708Z,15.20
2018-10-06T18:55:12.475Z,15.10
2018-10-06T18:59:52.189Z,14.90
2018-10-06T19:04:32.214Z,14.80
2018-10-06T19:09:11.987Z,14.70
2018-10-06T19:13:57.055Z,14.50
2018-10-06T19:18:37.303Z,14.40
2018-10-06T19:23:17.745Z,14.30
2018-10-06T19:27:58.220Z,14.20
2018-10-06T19:32:38.319Z,14.10
2018-10-06T19:37:18.158Z,14.10
2018-10-06T19:41:57.933Z,14.00
2018-10-06T19:46:37.938Z,13.90
2018-10-06T19:51:18.130Z,13.80
2018-10-06T19:55:58.619Z,13.70
2018-10-06T20:00:38.654Z,13.50
2018-10-06T20:05:19.299Z,13.40
2018-10-06T20:10:08.047Z,13.30
2018-10-06T20:14:49.352Z,13.20
2018-10-06T20:19:31.968Z,13.10
2018-10-06T20:24:13.120Z,13.00
2018-10-06T20:28:55.277Z,13.00
2018-10-06T20:33:36.463Z,12.90
2018-10-06T20:43:08.078Z,12.70
2018-10-06T20:47:48.909Z,12.70
2018-10-06T20:52:29.569Z,12.60
2018-10-06T20:57:11.085Z,12.50
2018-10-06T21:01:52.040Z,12.40
2018-10-06T21:06:32.245Z,12.30
2018-10-06T21:11:13.698Z,12.20
2018-10-06T21:15:56.318Z,12.00
2018-10-06T21:20:37.478Z,12.00
2018-10-06T21:25:21.329Z,11.90
2018-10-06T21:30:12.038Z,11.80
2018-10-06T21:34:56.060Z,11.80
2018-10-06T21:39:37.167Z,11.70
2018-10-06T21:44:20.942Z,11.70
2018-10-06T21:49:01.601Z,11.60
2018-10-06T21:53:42.275Z,11.60
2018-10-06T21:58:30.765Z,11.60
2018-10-06T22:03:12.458Z,11.60
2018-10-06T22:07:57.239Z,11.40
2018-10-06T22:12:38.334Z,11.30
2018-10-06T22:17:18.987Z,11.20
2018-10-06T22:22:00.322Z,11.10
2018-10-06T22:26:41.592Z,11.10
2018-10-06T22:31:21.821Z,11.00
2018-10-06T22:36:01.853Z,11.10
2018-10-06T22:40:42.310Z,11.10
2018-10-06T22:45:22.671Z,11.10
2018-10-06T22:50:04.165Z,11.00
2018-10-06T22:54:45.342Z,10.90
2018-10-06T22:59:25.839Z,10.90
2018-10-06T23:04:07.193Z,10.80
2018-10-06T23:08:47.139Z,10.70
2018-10-06T23:13:27.453Z,10.60
2018-10-06T23:18:08.045Z,10.60
2018-10-06T23:22:47.953Z,10.60
2018-10-06T23:27:28.220Z,10.50
2018-10-06T23:32:08.243Z,10.50
2018-10-06T23:36:47.938Z,10.50
2018-10-06T23:41:28.272Z,10.40
2018-10-06T23:46:08.492Z,10.30
2018-10-06T23:50:49.752Z,10.30
2018-10-06T23:55:29.394Z,10.20
